Terminal Aerodrome Forecast
Issued by NWS Billings, MT

Home | Current Version | Previous Version | Text Only | Print | Product List | Glossary On
Versions: 1 2 3 4 5 6 7 8 9 10 11 12 13 14 15 16 17 18 19 20 21 22 23 24 25 26 27 28 29
000
FTUS45 KBYZ 021137
TAFSHR
TAF
KSHR 021137Z 0212/0312 VRB04KT P6SM SCT120
     FM021600 32014G22KT P6SM BKN100
     FM022000 33022G33KT P6SM VCSH SCT025 OVC040
     FM030200 32014KT P6SM SCT030 BKN050
     FM030700 29006KT P6SM SKC=

USA.gov is the U.S. government's official web portal to all federal, state and local government web resources and services.